sensor_id;sensor_type;location;lat;lon;timestamp;pressure;altitude;pressure_sealevel;temperature;humidity
62418;BME280;48456;54.242;10.280;2023-06-14T00:02:16;101864.91;;;13.20;100.00
62418;BME280;48456;54.242;10.280;2023-06-14T00:04:42;101864.00;;;13.13;100.00
62418;BME280;48456;54.242;10.280;2023-06-14T00:07:09;101870.22;;;13.11;100.00
62418;BME280;48456;54.242;10.280;2023-06-14T00:09:39;101871.97;;;13.06;100.00
62418;BME280;48456;54.242;10.280;2023-06-14T00:12:05;101873.72;;;13.02;100.00
62418;BME280;48456;54.242;10.280;2023-06-14T00:14:32;101870.19;;;13.00;100.00
62418;BME280;48456;54.242;10.280;2023-06-14T00:16:59;101874.59;;;12.98;100.00
62418;BME280;48456;54.242;10.280;2023-06-14T00:19:26;101878.13;;;12.94;100.00
62418;BME280;48456;54.242;10.280;2023-06-14T00:21:52;101880.78;;;12.94;100.00
62418;BME280;48456;54.242;10.280;2023-06-14T00:24:19;101880.75;;;12.92;100.00
62418;BME280;48456;54.242;10.280;2023-06-14T00:26:46;101877.25;;;12.92;100.00
62418;BME280;48456;54.242;10.280;2023-06-14T00:29:13;101878.09;;;12.92;100.00
62418;BME280;48456;54.242;10.280;2023-06-14T00:31:39;101880.75;;;12.88;100.00
62418;BME280;48456;54.242;10.280;2023-06-14T00:34:06;101881.66;;;12.86;100.00
62418;BME280;48456;54.242;10.280;2023-06-14T00:36:32;101882.50;;;12.85;100.00
62418;BME280;48456;54.242;10.280;2023-06-14T00:38:59;101882.53;;;12.87;100.00
62418;BME280;48456;54.242;10.280;2023-06-14T00:41:25;101884.31;;;12.86;100.00
62418;BME280;48456;54.242;10.280;2023-06-14T00:43:51;101885.16;;;12.84;100.00
62418;BME280;48456;54.242;10.280;2023-06-14T00:46:18;101886.03;;;12.83;100.00
62418;BME280;48456;54.242;10.280;2023-06-14T00:48:45;101886.91;;;12.77;100.00
62418;BME280;48456;54.242;10.280;2023-06-14T00:51:13;101887.81;;;12.79;100.00
62418;BME280;48456;54.242;10.280;2023-06-14T00:53:39;101889.59;;;12.80;100.00
62418;BME280;48456;54.242;10.280;2023-06-14T00:56:07;101890.47;;;12.78;100.00
62418;BME280;48456;54.242;10.280;2023-06-14T00:58:33;101892.22;;;12.76;100.00
62418;BME280;48456;54.242;10.280;2023-06-14T01:01:00;101894.88;;;12.74;100.00
62418;BME280;48456;54.242;10.280;2023-06-14T01:03:26;101897.53;;;12.72;100.00
62418;BME280;48456;54.242;10.280;2023-06-14T01:06:59;101900.16;;;12.69;100.00
62418;BME280;48456;54.242;10.280;2023-06-14T01:11:32;101894.81;;;12.60;100.00
62418;BME280;48456;54.242;10.280;2023-06-14T01:14:04;101892.16;;;12.58;100.00
62418;BME280;48456;54.242;10.280;2023-06-14T01:16:31;101898.31;;;12.54;100.00
62418;BME280;48456;54.242;10.280;2023-06-14T01:18:58;101899.22;;;12.53;100.00
62418;BME280;48456;54.242;10.280;2023-06-14T01:21:25;101902.72;;;12.52;100.00
62418;BME280;48456;54.242;10.280;2023-06-14T01:23:52;101898.28;;;12.51;100.00
62418;BME280;48456;54.242;10.280;2023-06-14T01:26:21;101896.53;;;12.50;100.00
62418;BME280;48456;54.242;10.280;2023-06-14T01:28:48;101899.16;;;12.45;100.00
62418;BME280;48456;54.242;10.280;2023-06-14T01:31:17;101906.25;;;12.45;100.00
62418;BME280;48456;54.242;10.280;2023-06-14T01:33:44;101909.75;;;12.44;100.00
62418;BME280;48456;54.242;10.280;2023-06-14T01:36:11;101913.28;;;12.43;100.00
62418;BME280;48456;54.242;10.280;2023-06-14T01:38:38;101907.09;;;12.42;100.00
62418;BME280;48456;54.242;10.280;2023-06-14T01:41:05;101907.09;;;12.41;100.00
62418;BME280;48456;54.242;10.280;2023-06-14T01:43:32;101909.75;;;12.39;100.00
62418;BME280;48456;54.242;10.280;2023-06-14T01:45:59;101908.81;;;12.37;100.00
62418;BME280;48456;54.242;10.280;2023-06-14T01:48:26;101905.31;;;12.37;100.00
62418;BME280;48456;54.242;10.280;2023-06-14T01:50:53;101899.97;;;12.32;100.00
62418;BME280;48456;54.242;10.280;2023-06-14T01:53:19;101904.38;;;12.30;100.00
62418;BME280;48456;54.242;10.280;2023-06-14T01:55:46;101902.56;;;12.24;100.00
62418;BME280;48456;54.242;10.280;2023-06-14T01:58:14;101900.78;;;12.20;100.00
62418;BME280;48456;54.242;10.280;2023-06-14T02:00:42;101905.19;;;12.21;100.00
62418;BME280;48456;54.242;10.280;2023-06-14T02:03:13;101903.44;;;12.21;100.00
62418;BME280;48456;54.242;10.280;2023-06-14T02:05:41;101908.75;;;12.23;100.00
62418;BME280;48456;54.242;10.280;2023-06-14T02:08:08;101908.75;;;12.21;100.00
62418;BME280;48456;54.242;10.280;2023-06-14T02:10:34;101913.16;;;12.21;100.00
62418;BME280;48456;54.242;10.280;2023-06-14T02:13:02;101906.94;;;12.17;100.00
62418;BME280;48456;54.242;10.280;2023-06-14T02:15:28;101907.81;;;12.18;100.00
62418;BME280;48456;54.242;10.280;2023-06-14T02:18:03;101908.69;;;12.17;100.00
62418;BME280;48456;54.242;10.280;2023-06-14T02:20:29;101906.94;;;12.20;100.00
62418;BME280;48456;54.242;10.280;2023-06-14T02:22:56;101911.34;;;12.15;100.00
62418;BME280;48456;54.242;10.280;2023-06-14T02:25:23;101909.56;;;12.13;100.00
62418;BME280;48456;54.242;10.280;2023-06-14T02:27:49;101916.63;;;12.11;100.00
62418;BME280;48456;54.242;10.280;2023-06-14T02:30:16;101908.66;;;12.07;100.00
62418;BME280;48456;54.242;10.280;2023-06-14T02:32:43;101915.69;;;12.07;100.00
62418;BME280;48456;54.242;10.280;2023-06-14T02:35:09;101915.72;;;12.10;100.00
62418;BME280;48456;54.242;10.280;2023-06-14T02:37:36;101917.50;;;12.11;100.00
62418;BME280;48456;54.242;10.280;2023-06-14T02:40:03;101921.91;;;12.07;100.00
62418;BME280;48456;54.242;10.280;2023-06-14T02:42:30;101914.84;;;12.06;100.00
62418;BME280;48456;54.242;10.280;2023-06-14T02:44:56;101920.13;;;12.09;100.00
62418;BME280;48456;54.242;10.280;2023-06-14T02:47:22;101922.78;;;12.09;100.00
62418;BME280;48456;54.242;10.280;2023-06-14T02:49:50;101916.59;;;12.07;100.00
62418;BME280;48456;54.242;10.280;2023-06-14T02:52:17;101917.41;;;12.02;100.00
62418;BME280;48456;54.242;10.280;2023-06-14T02:54:43;101925.34;;;12.00;100.00
62418;BME280;48456;54.242;10.280;2023-06-14T02:57:09;101920.88;;;11.94;100.00
62418;BME280;48456;54.242;10.280;2023-06-14T02:59:37;101914.66;;;11.89;100.00
62418;BME280;48456;54.242;10.280;2023-06-14T03:02:03;101927.84;;;11.80;100.00
62418;BME280;48456;54.242;10.280;2023-06-14T03:04:30;101921.63;;;11.75;100.00
62418;BME280;48456;54.242;10.280;2023-06-14T03:07:01;101918.88;;;11.67;100.00
62418;BME280;48456;54.242;10.280;2023-06-14T03:09:29;101920.59;;;11.60;100.00
62418;BME280;48456;54.242;10.280;2023-06-14T03:11:55;101920.59;;;11.57;100.00
62418;BME280;48456;54.242;10.280;2023-06-14T03:14:22;101924.06;;;11.56;100.00
62418;BME280;48456;54.242;10.280;2023-06-14T03:16:48;101925.03;;;11.60;100.00
62418;BME280;48456;54.242;10.280;2023-06-14T03:19:16;101929.44;;;11.61;100.00
62418;BME280;48456;54.242;10.280;2023-06-14T03:21:43;101927.69;;;11.64;100.00
62418;BME280;48456;54.242;10.280;2023-06-14T03:24:10;101922.44;;;11.67;100.00
62418;BME280;48456;54.242;10.280;2023-06-14T03:26:37;101918.91;;;11.70;100.00
62418;BME280;48456;54.242;10.280;2023-06-14T03:29:04;101927.81;;;11.77;100.00
62418;BME280;48456;54.242;10.280;2023-06-14T03:31:30;101920.78;;;11.79;100.00
62418;BME280;48456;54.242;10.280;2023-06-14T03:34:00;101938.47;;;11.83;100.00
62418;BME280;48456;54.242;10.280;2023-06-14T03:36:26;101928.75;;;11.83;100.00
62418;BME280;48456;54.242;10.280;2023-06-14T03:38:54;101936.72;;;11.85;100.00
62418;BME280;48456;54.242;10.280;2023-06-14T03:41:21;101936.75;;;11.88;100.00
62418;BME280;48456;54.242;10.280;2023-06-14T03:43:47;101936.81;;;11.98;100.00
62418;BME280;48456;54.242;10.280;2023-06-14T03:46:14;101932.41;;;11.96;100.00
62418;BME280;48456;54.242;10.280;2023-06-14T03:48:40;101935.06;;;12.01;100.00
62418;BME280;48456;54.242;10.280;2023-06-14T03:51:07;101937.81;;;12.07;100.00
62418;BME280;48456;54.242;10.280;2023-06-14T03:53:33;101936.91;;;12.05;100.00
62418;BME280;48456;54.242;10.280;2023-06-14T03:56:09;101943.97;;;12.05;100.00
62418;BME280;48456;54.242;10.280;2023-06-14T03:58:36;101948.34;;;12.00;100.00
62418;BME280;48456;54.242;10.280;2023-06-14T04:01:03;101955.44;;;12.02;100.00
62418;BME280;48456;54.242;10.280;2023-06-14T04:03:29;101954.63;;;12.06;100.00
62418;BME280;48456;54.242;10.280;2023-06-14T04:05:56;101967.91;;;12.13;100.00
62418;BME280;48456;54.242;10.280;2023-06-14T04:08:23;101955.56;;;12.15;100.00
62418;BME280;48456;54.242;10.280;2023-06-14T04:10:50;101954.69;;;12.20;100.00
62418;BME280;48456;54.242;10.280;2023-06-14T04:13:17;101960.09;;;12.30;100.00
62418;BME280;48456;54.242;10.280;2023-06-14T04:15:43;101963.69;;;12.38;100.00
62418;BME280;48456;54.242;10.280;2023-06-14T04:18:12;101969.06;;;12.52;100.00
62418;BME280;48456;54.242;10.280;2023-06-14T04:20:39;101965.56;;;12.58;100.00
62418;BME280;48456;54.242;10.280;2023-06-14T04:23:13;101969.16;;;12.68;100.00
62418;BME280;48456;54.242;10.280;2023-06-14T04:25:40;101971.84;;;12.76;100.00
62418;BME280;48456;54.242;10.280;2023-06-14T04:28:12;101974.56;;;12.88;100.00
62418;BME280;48456;54.242;10.280;2023-06-14T04:30:38;101975.50;;;12.98;100.00
62418;BME280;48456;54.242;10.280;2023-06-14T04:33:06;101972.88;;;13.07;100.00
62418;BME280;48456;54.242;10.280;2023-06-14T04:35:33;101980.06;;;13.21;100.00
62418;BME280;48456;54.242;10.280;2023-06-14T04:38:02;101976.50;;;13.28;100.00
62418;BME280;48456;54.242;10.280;2023-06-14T04:40:32;101979.22;;;13.36;100.00
62418;BME280;48456;54.242;10.280;2023-06-14T04:42:59;101984.53;;;13.45;100.00
62418;BME280;48456;54.242;10.280;2023-06-14T04:45:27;101981.06;;;13.59;100.00
62418;BME280;48456;54.242;10.280;2023-06-14T04:48:00;101970.44;;;13.63;100.00
62418;BME280;48456;54.242;10.280;2023-06-14T04:50:27;101971.34;;;13.69;100.00
62418;BME280;48456;54.242;10.280;2023-06-14T04:52:55;101969.56;;;13.74;100.00
62418;BME280;48456;54.242;10.280;2023-06-14T04:55:23;101975.75;;;13.76;100.00
62418;BME280;48456;54.242;10.280;2023-06-14T04:57:49;101981.09;;;13.85;100.00
62418;BME280;48456;54.242;10.280;2023-06-14T05:00:20;101971.38;;;13.95;100.00
62418;BME280;48456;54.242;10.280;2023-06-14T05:02:46;101980.22;;;14.05;100.00
62418;BME280;48456;54.242;10.280;2023-06-14T05:05:13;101982.88;;;14.16;100.00
62418;BME280;48456;54.242;10.280;2023-06-14T05:07:42;101977.53;;;14.28;100.00
62418;BME280;48456;54.242;10.280;2023-06-14T05:10:09;101979.31;;;14.39;100.00
62418;BME280;48456;54.242;10.280;2023-06-14T05:12:36;101976.63;;;14.56;100.00
62418;BME280;48456;54.242;10.280;2023-06-14T05:15:03;101978.38;;;14.68;100.00
62418;BME280;48456;54.242;10.280;2023-06-14T05:17:29;101980.16;;;14.78;100.00
62418;BME280;48456;54.242;10.280;2023-06-14T05:19:56;101972.13;;;14.94;100.00
62418;BME280;48456;54.242;10.280;2023-06-14T05:22:22;101979.16;;;15.04;100.00
62418;BME280;48456;54.242;10.280;2023-06-14T05:24:48;101980.00;;;15.19;100.00
62418;BME280;48456;54.242;10.280;2023-06-14T05:27:16;101969.31;;;15.24;100.00
62418;BME280;48456;54.242;10.280;2023-06-14T05:29:42;101978.13;;;15.37;100.00
62418;BME280;48456;54.242;10.280;2023-06-14T05:32:09;101971.03;;;15.34;100.00
62418;BME280;48456;54.242;10.280;2023-06-14T05:34:36;101979.00;;;15.40;100.00
62418;BME280;48456;54.242;10.280;2023-06-14T05:37:02;101975.34;;;15.57;100.00
62418;BME280;48456;54.242;10.280;2023-06-14T05:39:30;101970.84;;;15.64;100.00
62418;BME280;48456;54.242;10.280;2023-06-14T05:41:57;101966.41;;;15.63;100.00
62418;BME280;48456;54.242;10.280;2023-06-14T05:44:23;101974.28;;;15.78;100.00
62418;BME280;48456;54.242;10.280;2023-06-14T05:46:49;101970.66;;;15.93;100.00
62418;BME280;48456;54.242;10.280;2023-06-14T05:49:16;101975.88;;;16.07;100.00
62418;BME280;48456;54.242;10.280;2023-06-14T05:51:43;101975.00;;;16.08;100.00
62418;BME280;48456;54.242;10.280;2023-06-14T05:54:09;101982.03;;;16.16;100.00
62418;BME280;48456;54.242;10.280;2023-06-14T05:56:36;101983.78;;;16.21;100.00
62418;BME280;48456;54.242;10.280;2023-06-14T05:59:02;101980.25;;;16.19;100.00
62418;BME280;48456;54.242;10.280;2023-06-14T06:01:29;101982.72;;;16.38;100.00
62418;BME280;48456;54.242;10.280;2023-06-14T06:03:56;101982.59;;;16.54;100.00
62418;BME280;48456;54.242;10.280;2023-06-14T06:06:23;101972.72;;;16.59;100.00
62418;BME280;48456;54.242;10.280;2023-06-14T06:08:49;101982.41;;;16.68;100.00
62418;BME280;48456;54.242;10.280;2023-06-14T06:11:16;101985.00;;;16.77;100.00
62418;BME280;48456;54.242;10.280;2023-06-14T06:13:42;101975.03;;;16.92;100.00
62418;BME280;48456;54.242;10.280;2023-06-14T06:16:09;101975.84;;;16.98;100.00
62418;BME280;48456;54.242;10.280;2023-06-14T06:18:35;101974.88;;;17.09;100.00
62418;BME280;48456;54.242;10.280;2023-06-14T06:21:03;101979.13;;;17.22;100.00
62418;BME280;48456;54.242;10.280;2023-06-14T06:23:30;101974.56;;;17.31;100.00
62418;BME280;48456;54.242;10.280;2023-06-14T06:25:56;101980.56;;;17.47;100.00
62418;BME280;48456;54.242;10.280;2023-06-14T06:28:23;101977.88;;;17.48;100.00
62418;BME280;48456;54.242;10.280;2023-06-14T06:30:49;101982.88;;;17.73;100.00
62418;BME280;48456;54.242;10.280;2023-06-14T06:33:16;101979.81;;;17.97;100.00
62418;BME280;48456;54.242;10.280;2023-06-14T06:35:43;101981.06;;;18.29;100.00
62418;BME280;48456;54.242;10.280;2023-06-14T06:38:10;101975.84;;;18.23;100.00
62418;BME280;48456;54.242;10.280;2023-06-14T06:40:36;101978.34;;;18.34;100.00
62418;BME280;48456;54.242;10.280;2023-06-14T06:43:03;101967.81;;;18.23;100.00
62418;BME280;48456;54.242;10.280;2023-06-14T06:45:29;101982.47;;;18.52;100.00
62418;BME280;48456;54.242;10.280;2023-06-14T06:47:56;101978.53;;;18.70;100.00
62418;BME280;48456;54.242;10.280;2023-06-14T06:50:23;101980.81;;;18.92;100.00
62418;BME280;48456;54.242;10.280;2023-06-14T06:52:51;101981.88;;;18.81;100.00
62418;BME280;48456;54.242;10.280;2023-06-14T06:55:17;101980.59;;;19.01;100.00
62418;BME280;48456;54.242;10.280;2023-06-14T06:57:45;101987.19;;;19.29;100.00
62418;BME280;48456;54.242;10.280;2023-06-14T07:00:11;101986.72;;;19.09;100.00
62418;BME280;48456;54.242;10.280;2023-06-14T07:02:39;101982.69;;;19.29;100.00
62418;BME280;48456;54.242;10.280;2023-06-14T07:05:06;101985.31;;;19.32;100.00
62418;BME280;48456;54.242;10.280;2023-06-14T07:07:34;101988.97;;;19.30;100.00
62418;BME280;48456;54.242;10.280;2023-06-14T07:10:00;101991.66;;;19.30;100.00
62418;BME280;48456;54.242;10.280;2023-06-14T07:12:30;101993.50;;;19.28;100.00
62418;BME280;48456;54.242;10.280;2023-06-14T07:14:57;101992.16;;;19.46;100.00
62418;BME280;48456;54.242;10.280;2023-06-14T07:17:24;101986.16;;;19.74;100.00
62418;BME280;48456;54.242;10.280;2023-06-14T07:19:50;101993.19;;;19.80;100.00
62418;BME280;48456;54.242;10.280;2023-06-14T07:22:17;102010.31;;;19.74;100.00
62418;BME280;48456;54.242;10.280;2023-06-14T07:24:44;101995.56;;;19.94;100.00
62418;BME280;48456;54.242;10.280;2023-06-14T07:27:10;101998.31;;;19.91;100.00
62418;BME280;48456;54.242;10.280;2023-06-14T07:29:40;102008.97;;;19.94;100.00
62418;BME280;48456;54.242;10.280;2023-06-14T07:32:07;102001.13;;;19.84;100.00
62418;BME280;48456;54.242;10.280;2023-06-14T07:34:33;101999.69;;;20.09;100.00
62418;BME280;48456;54.242;10.280;2023-06-14T07:36:59;102002.53;;;20.37;100.00
62418;BME280;48456;54.242;10.280;2023-06-14T07:39:26;102006.25;;;20.32;100.00
62418;BME280;48456;54.242;10.280;2023-06-14T07:41:53;102003.06;;;20.17;100.00
62418;BME280;48456;54.242;10.280;2023-06-14T07:44:19;101993.28;;;20.48;100.00
62418;BME280;48456;54.242;10.280;2023-06-14T07:46:46;101999.84;;;20.71;100.00
62418;BME280;48456;54.242;10.280;2023-06-14T07:49:15;102001.25;;;20.84;100.00
62418;BME280;48456;54.242;10.280;2023-06-14T07:51:42;102000.72;;;21.05;100.00
62418;BME280;48456;54.242;10.280;2023-06-14T07:54:10;101996.88;;;21.13;100.00
62418;BME280;48456;54.242;10.280;2023-06-14T07:56:36;102004.06;;;21.13;100.00
62418;BME280;48456;54.242;10.280;2023-06-14T07:59:03;102001.41;;;20.78;100.00
62418;BME280;48456;54.242;10.280;2023-06-14T08:01:29;102004.28;;;21.05;100.00
62418;BME280;48456;54.242;10.280;2023-06-14T08:03:59;102004.59;;;20.94;100.00
62418;BME280;48456;54.242;10.280;2023-06-14T08:06:28;101998.34;;;21.24;100.00
62418;BME280;48456;54.242;10.280;2023-06-14T08:08:54;102000.47;;;21.42;100.00
62418;BME280;48456;54.242;10.280;2023-06-14T08:11:21;101999.88;;;21.33;100.00
62418;BME280;48456;54.242;10.280;2023-06-14T08:13:47;101996.66;;;21.50;100.00
62418;BME280;48456;54.242;10.280;2023-06-14T08:16:16;102006.28;;;21.28;100.00
62418;BME280;48456;54.242;10.280;2023-06-14T08:18:43;101993.03;;;21.21;100.00
62418;BME280;48456;54.242;10.280;2023-06-14T08:21:11;102002.41;;;21.07;100.00
62418;BME280;48456;54.242;10.280;2023-06-14T08:23:37;101996.31;;;21.32;100.00
62418;BME280;48456;54.242;10.280;2023-06-14T08:26:04;101992.41;;;21.12;100.00
62418;BME280;48456;54.242;10.280;2023-06-14T08:28:30;101995.53;;;21.28;100.00
62418;BME280;48456;54.242;10.280;2023-06-14T08:30:57;101999.72;;;21.37;100.00
62418;BME280;48456;54.242;10.280;2023-06-14T08:33:23;101997.00;;;21.67;100.00
62418;BME280;48456;54.242;10.280;2023-06-14T08:35:50;101991.78;;;21.91;100.00
62418;BME280;48456;54.242;10.280;2023-06-14T08:38:16;101991.38;;;22.04;100.00
62418;BME280;48456;54.242;10.280;2023-06-14T08:40:43;101998.22;;;22.40;100.00
62418;BME280;48456;54.242;10.280;2023-06-14T08:43:11;101990.16;;;22.13;100.00
62418;BME280;48456;54.242;10.280;2023-06-14T08:45:37;101985.75;;;22.37;100.00
62418;BME280;48456;54.242;10.280;2023-06-14T08:48:05;101991.75;;;22.71;100.00
62418;BME280;48456;54.242;10.280;2023-06-14T08:50:32;101995.34;;;22.71;100.00
62418;BME280;48456;54.242;10.280;2023-06-14T08:53:01;101986.91;;;22.55;100.00
62418;BME280;48456;54.242;10.280;2023-06-14T08:55:30;101992.25;;;22.57;100.00
62418;BME280;48456;54.242;10.280;2023-06-14T08:58:01;101995.97;;;22.27;100.00
62418;BME280;48456;54.242;10.280;2023-06-14T09:00:30;101996.09;;;22.23;100.00
62418;BME280;48456;54.242;10.280;2023-06-14T09:02:57;101994.97;;;22.30;100.00
62418;BME280;48456;54.242;10.280;2023-06-14T09:05:25;101997.00;;;22.23;100.00
62418;BME280;48456;54.242;10.280;2023-06-14T09:07:53;101993.69;;;22.40;100.00
62418;BME280;48456;54.242;10.280;2023-06-14T09:10:21;101996.44;;;22.66;100.00
62418;BME280;48456;54.242;10.280;2023-06-14T09:12:49;101995.44;;;22.68;100.00
62418;BME280;48456;54.242;10.280;2023-06-14T09:15:15;101998.50;;;22.83;100.00
62418;BME280;48456;54.242;10.280;2023-06-14T09:17:43;101994.75;;;22.87;100.00
62418;BME280;48456;54.242;10.280;2023-06-14T09:20:09;101995.09;;;22.78;100.00
62418;BME280;48456;54.242;10.280;2023-06-14T09:22:37;101998.94;;;22.96;100.00
62418;BME280;48456;54.242;10.280;2023-06-14T09:25:04;102000.50;;;23.26;100.00
62418;BME280;48456;54.242;10.280;2023-06-14T09:27:31;102003.03;;;23.54;100.00
62418;BME280;48456;54.242;10.280;2023-06-14T09:30:02;101999.75;;;23.68;100.00
62418;BME280;48456;54.242;10.280;2023-06-14T09:32:29;102007.09;;;23.65;100.00
62418;BME280;48456;54.242;10.280;2023-06-14T09:34:55;102000.63;;;23.22;100.00
62418;BME280;48456;54.242;10.280;2023-06-14T09:37:29;102001.84;;;23.39;100.00
62418;BME280;48456;54.242;10.280;2023-06-14T09:39:56;102004.03;;;23.04;100.00
62418;BME280;48456;54.242;10.280;2023-06-14T09:42:23;102009.22;;;23.32;100.00
62418;BME280;48456;54.242;10.280;2023-06-14T09:44:52;102005.22;;;23.44;100.00
62418;BME280;48456;54.242;10.280;2023-06-14T09:47:20;102000.63;;;23.69;100.00
62418;BME280;48456;54.242;10.280;2023-06-14T09:49:47;102014.72;;;23.77;100.00
62418;BME280;48456;54.242;10.280;2023-06-14T09:52:15;102006.59;;;23.77;100.00
62418;BME280;48456;54.242;10.280;2023-06-14T09:54:43;101996.41;;;23.61;100.00
62418;BME280;48456;54.242;10.280;2023-06-14T09:57:13;101997.13;;;23.67;100.00
62418;BME280;48456;54.242;10.280;2023-06-14T09:59:41;101989.00;;;23.89;100.00
62418;BME280;48456;54.242;10.280;2023-06-14T10:02:14;101990.69;;;24.14;100.00
62418;BME280;48456;54.242;10.280;2023-06-14T10:04:46;101996.09;;;24.14;100.00
62418;BME280;48456;54.242;10.280;2023-06-14T10:07:15;101982.41;;;24.39;100.00
62418;BME280;48456;54.242;10.280;2023-06-14T10:09:45;101986.56;;;24.47;100.00
62418;BME280;48456;54.242;10.280;2023-06-14T10:12:16;101984.09;;;24.42;100.00
62418;BME280;48456;54.242;10.280;2023-06-14T10:14:48;101988.41;;;24.25;100.00
62418;BME280;48456;54.242;10.280;2023-06-14T10:19:54;101989.03;;;24.32;100.00
62418;BME280;48456;54.242;10.280;2023-06-14T10:22:23;101981.50;;;24.39;100.00
62418;BME280;48456;54.242;10.280;2023-06-14T10:24:52;101986.28;;;24.74;100.00
62418;BME280;48456;54.242;10.280;2023-06-14T10:27:18;101980.06;;;24.51;100.00
62418;BME280;48456;54.242;10.280;2023-06-14T10:32:22;101985.88;;;24.83;100.00
62418;BME280;48456;54.242;10.280;2023-06-14T10:34:53;101982.09;;;25.64;100.00
62418;BME280;48456;54.242;10.280;2023-06-14T10:37:19;101978.13;;;26.94;100.00
62418;BME280;48456;54.242;10.280;2023-06-14T10:39:46;101977.75;;;27.50;100.00
62418;BME280;48456;54.242;10.280;2023-06-14T10:42:13;101987.41;;;26.90;100.00
62418;BME280;48456;54.242;10.280;2023-06-14T10:44:44;101971.88;;;26.42;100.00
62418;BME280;48456;54.242;10.280;2023-06-14T10:49:54;101969.16;;;27.09;100.00
62418;BME280;48456;54.242;10.280;2023-06-14T10:52:24;101971.09;;;28.02;100.00
62418;BME280;48456;54.242;10.280;2023-06-14T10:57:38;101977.34;;;29.23;100.00
62418;BME280;48456;54.242;10.280;2023-06-14T11:00:27;101972.59;;;28.97;87.91
62418;BME280;48456;54.242;10.280;2023-06-14T11:05:50;101960.16;;;29.90;80.23
62418;BME280;48456;54.242;10.280;2023-06-14T11:08:26;101968.13;;;30.34;77.44
62418;BME280;48456;54.242;10.280;2023-06-14T11:10:54;101971.88;;;28.35;92.47
62418;BME280;48456;54.242;10.280;2023-06-14T11:13:24;101969.88;;;28.23;87.79
62418;BME280;48456;54.242;10.280;2023-06-14T11:15:51;101965.78;;;28.75;94.91
62418;BME280;48456;54.242;10.280;2023-06-14T11:18:24;101961.88;;;29.09;86.40
62418;BME280;48456;54.242;10.280;2023-06-14T11:20:51;101954.47;;;29.80;83.66
62418;BME280;48456;54.242;10.280;2023-06-14T11:23:17;101952.75;;;29.92;82.65
62418;BME280;48456;54.242;10.280;2023-06-14T11:25:49;101951.84;;;30.32;81.06
62418;BME280;48456;54.242;10.280;2023-06-14T11:28:15;101960.44;;;31.04;80.44
62418;BME280;48456;54.242;10.280;2023-06-14T11:30:42;101959.69;;;30.37;66.61
62418;BME280;48456;54.242;10.280;2023-06-14T11:33:09;101952.72;;;30.85;66.50
62418;BME280;48456;54.242;10.280;2023-06-14T11:35:36;101943.97;;;31.17;70.45
62418;BME280;48456;54.242;10.280;2023-06-14T11:38:02;101935.78;;;30.54;61.58
62418;BME280;48456;54.242;10.280;2023-06-14T11:40:29;101941.69;;;30.21;64.19
62418;BME280;48456;54.242;10.280;2023-06-14T11:42:58;101937.00;;;30.37;64.43
62418;BME280;48456;54.242;10.280;2023-06-14T11:45:26;101936.47;;;30.31;68.46
62418;BME280;48456;54.242;10.280;2023-06-14T11:47:54;101941.00;;;30.05;64.73
62418;BME280;48456;54.242;10.280;2023-06-14T11:50:21;101942.50;;;29.96;68.23
62418;BME280;48456;54.242;10.280;2023-06-14T11:53:07;101946.66;;;30.02;66.05
62418;BME280;48456;54.242;10.280;2023-06-14T11:55:36;101943.38;;;30.09;62.98
62418;BME280;48456;54.242;10.280;2023-06-14T11:58:03;101938.66;;;29.99;64.79
62418;BME280;48456;54.242;10.280;2023-06-14T12:00:29;101938.84;;;30.49;66.22
62418;BME280;48456;54.242;10.280;2023-06-14T12:02:56;101934.03;;;30.66;63.27
62418;BME280;48456;54.242;10.280;2023-06-14T12:05:24;101943.31;;;30.89;65.06
62418;BME280;48456;54.242;10.280;2023-06-14T12:07:57;101934.06;;;29.73;68.48
62418;BME280;48456;54.242;10.280;2023-06-14T12:10:25;101927.88;;;31.01;67.67
62418;BME280;48456;54.242;10.280;2023-06-14T12:12:56;101932.94;;;30.68;63.22
62418;BME280;48456;54.242;10.280;2023-06-14T12:15:23;101925.31;;;30.34;64.38
62418;BME280;48456;54.242;10.280;2023-06-14T12:17:49;101917.59;;;29.88;61.49
62418;BME280;48456;54.242;10.280;2023-06-14T12:20:17;101917.66;;;30.53;66.19
62418;BME280;48456;54.242;10.280;2023-06-14T12:22:57;101924.97;;;30.65;62.25
62418;BME280;48456;54.242;10.280;2023-06-14T12:27:54;101916.97;;;30.10;67.20
62418;BME280;48456;54.242;10.280;2023-06-14T12:30:21;101932.19;;;30.40;65.52
62418;BME280;48456;54.242;10.280;2023-06-14T12:32:48;101922.84;;;29.23;70.56
62418;BME280;48456;54.242;10.280;2023-06-14T12:35:15;101919.41;;;30.28;72.45
62418;BME280;48456;54.242;10.280;2023-06-14T12:37:42;101920.22;;;29.76;70.07
62418;BME280;48456;54.242;10.280;2023-06-14T12:40:08;101921.91;;;28.22;72.80
62418;BME280;48456;54.242;10.280;2023-06-14T12:42:34;101923.56;;;27.94;80.41
62418;BME280;48456;54.242;10.280;2023-06-14T12:45:01;101921.81;;;27.62;89.09
62418;BME280;48456;54.242;10.280;2023-06-14T12:47:29;101933.78;;;27.27;94.81
62418;BME280;48456;54.242;10.280;2023-06-14T12:49:56;101921.41;;;27.84;90.04
62418;BME280;48456;54.242;10.280;2023-06-14T12:52:22;101919.41;;;28.62;91.35